createdAt,value
2023-05-08T00:01:32.230Z,10.48
2023-05-08T00:03:59.508Z,10.07
2023-05-08T00:06:27.846Z,9.55
2023-05-08T00:08:56.255Z,10.25
2023-05-08T00:11:23.329Z,10.15
2023-05-08T00:13:50.429Z,10.80
2023-05-08T00:16:17.585Z,10.63
2023-05-08T00:18:44.780Z,10.07
2023-05-08T00:21:11.882Z,10.60
2023-05-08T00:23:39.024Z,10.57
2023-05-08T00:26:06.073Z,10.30
2023-05-08T00:28:33.278Z,10.18
2023-05-08T00:31:02.189Z,10.32
2023-05-08T00:33:29.366Z,10.50
2023-05-08T00:36:01.618Z,11.18
2023-05-08T00:38:31.707Z,10.00
2023-05-08T00:40:59.027Z,10.50
2023-05-08T00:43:28.320Z,10.10
2023-05-08T00:45:57.084Z,10.23
2023-05-08T00:48:25.628Z,10.95
2023-05-08T00:50:54.663Z,10.82
2023-05-08T00:53:23.380Z,10.25
2023-05-08T00:55:51.855Z,11.32
2023-05-08T00:58:21.982Z,11.13
2023-05-08T01:00:54.280Z,11.32
2023-05-08T01:03:22.776Z,11.40
2023-05-08T01:05:50.632Z,12.50
2023-05-08T01:08:17.720Z,11.30
2023-05-08T01:11:09.354Z,12.32
2023-05-08T01:13:50.350Z,13.05
2023-05-08T01:16:38.759Z,12.38
2023-05-08T01:19:34.513Z,12.23
2023-05-08T01:22:18.298Z,12.82
2023-05-08T01:25:03.768Z,12.43
2023-05-08T01:27:50.937Z,13.27
2023-05-08T01:30:32.108Z,13.20
2023-05-08T01:33:08.239Z,12.88
2023-05-08T01:35:49.817Z,13.43
2023-05-08T01:38:16.861Z,13.88
2023-05-08T01:40:52.803Z,14.20
2023-05-08T01:43:50.654Z,14.43
2023-05-08T01:46:23.107Z,14.90
2023-05-08T01:48:56.430Z,15.80
2023-05-08T01:51:27.974Z,12.15
2023-05-08T01:54:01.156Z,16.30
2023-05-08T01:56:30.461Z,16.58
2023-05-08T01:59:00.092Z,16.80
2023-05-08T02:01:29.461Z,17.42
2023-05-08T02:03:58.889Z,17.38
2023-05-08T02:06:29.128Z,17.95
2023-05-08T02:08:57.821Z,17.08
2023-05-08T02:11:26.142Z,18.40
2023-05-08T02:13:54.013Z,18.42
2023-05-08T02:16:22.954Z,17.98
2023-05-08T02:18:54.062Z,19.20
2023-05-08T02:21:22.400Z,19.02
2023-05-08T02:23:52.104Z,18.98
2023-05-08T02:26:21.518Z,19.27
2023-05-08T02:28:51.639Z,19.48
2023-05-08T02:31:20.861Z,18.83
2023-05-08T02:33:49.466Z,19.90
2023-05-08T02:36:19.094Z,20.17
2023-05-08T02:38:50.982Z,19.25
2023-05-08T02:41:22.486Z,19.70
2023-05-08T02:43:52.128Z,20.17
2023-05-08T02:46:26.527Z,20.65
2023-05-08T02:48:58.489Z,20.08
2023-05-08T02:51:28.320Z,20.67
2023-05-08T02:53:58.704Z,20.17
2023-05-08T02:56:36.329Z,20.77
2023-05-08T02:59:24.432Z,20.20
2023-05-08T03:02:06.071Z,19.48
2023-05-08T03:04:37.062Z,21.08
2023-05-08T03:07:05.075Z,21.08
2023-05-08T03:09:42.577Z,20.63
2023-05-08T03:12:15.848Z,20.55
2023-05-08T03:14:55.466Z,19.73
2023-05-08T03:17:25.569Z,20.50
2023-05-08T03:19:57.409Z,20.20
2023-05-08T03:22:27.144Z,20.17
2023-05-08T03:24:56.783Z,20.35
2023-05-08T03:27:24.656Z,19.90
2023-05-08T03:29:53.704Z,19.73
2023-05-08T03:32:22.266Z,18.75
2023-05-08T03:34:50.992Z,19.33
2023-05-08T03:37:18.746Z,19.15
2023-05-08T03:39:46.095Z,19.25
2023-05-08T03:42:21.321Z,18.98
2023-05-08T03:44:51.774Z,18.90
2023-05-08T03:47:20.531Z,18.48
2023-05-08T03:49:49.909Z,18.25
2023-05-08T03:52:17.909Z,18.65
2023-05-08T03:54:45.729Z,18.30
2023-05-08T03:57:13.623Z,17.92
2023-05-08T04:00:13.806Z,18.30
2023-05-08T04:02:42.461Z,18.25
2023-05-08T04:05:26.289Z,18.33
2023-05-08T04:08:05.448Z,18.08
2023-05-08T04:10:39.632Z,18.00
2023-05-08T04:13:11.551Z,16.55
2023-05-08T04:16:06.998Z,18.02
2023-05-08T04:18:38.391Z,17.35
2023-05-08T04:21:11.552Z,16.10
2023-05-08T04:23:41.630Z,17.83
2023-05-08T04:26:10.717Z,17.20
2023-05-08T04:28:37.998Z,17.67
2023-05-08T04:31:06.001Z,17.65
2023-05-08T04:33:35.279Z,17.50
2023-05-08T04:36:03.452Z,17.65
2023-05-08T04:38:32.066Z,16.27
2023-05-08T04:40:59.597Z,16.15
2023-05-08T04:43:26.742Z,17.30
2023-05-08T04:45:53.911Z,16.52
2023-05-08T04:48:21.098Z,16.05
2023-05-08T04:50:48.226Z,15.80
2023-05-08T04:53:15.462Z,16.35
2023-05-08T04:55:42.707Z,15.73
2023-05-08T04:58:11.630Z,15.55
2023-05-08T05:00:39.078Z,16.30
2023-05-08T05:03:06.282Z,15.40
2023-05-08T05:05:37.021Z,15.48
2023-05-08T05:08:06.488Z,15.80
2023-05-08T05:10:33.838Z,16.23
2023-05-08T05:13:00.997Z,15.30
2023-05-08T05:15:28.819Z,14.38
2023-05-08T05:17:56.017Z,14.18
2023-05-08T05:20:23.175Z,14.98
2023-05-08T05:22:50.268Z,15.75
2023-05-08T05:25:17.587Z,15.13
2023-05-08T05:27:45.102Z,15.32
2023-05-08T05:30:12.765Z,14.82
2023-05-08T05:32:40.212Z,15.40
2023-05-08T05:35:09.193Z,15.90
2023-05-08T05:37:36.664Z,15.35
2023-05-08T05:40:04.644Z,15.55
2023-05-08T05:42:34.494Z,15.63
2023-05-08T05:45:02.358Z,15.38
2023-05-08T05:47:31.145Z,14.38
2023-05-08T05:49:58.957Z,15.18
2023-05-08T05:52:26.875Z,15.65
2023-05-08T05:54:54.185Z,15.63
2023-05-08T05:57:21.386Z,16.23
2023-05-08T05:59:48.929Z,15.88
2023-05-08T06:02:19.080Z,16.00
2023-05-08T06:04:47.714Z,14.95
2023-05-08T06:07:15.346Z,15.38
2023-05-08T06:09:42.465Z,14.90
2023-05-08T06:12:10.522Z,15.15
2023-05-08T06:14:37.652Z,15.38
2023-05-08T06:17:05.568Z,15.75
2023-05-08T06:19:32.783Z,16.08
2023-05-08T06:21:59.891Z,15.95
2023-05-08T06:24:27.874Z,14.70
2023-05-08T06:26:55.061Z,15.20
2023-05-08T06:29:22.166Z,15.55
2023-05-08T06:31:49.252Z,15.90
2023-05-08T06:34:16.384Z,15.68
2023-05-08T06:36:43.459Z,16.17
2023-05-08T06:39:10.677Z,15.60
2023-05-08T06:41:37.779Z,16.52
2023-05-08T06:44:04.943Z,16.45
2023-05-08T06:46:32.094Z,16.17
2023-05-08T06:48:59.344Z,16.55
2023-05-08T06:51:27.223Z,15.57
2023-05-08T06:53:54.281Z,17.13
2023-05-08T06:56:22.858Z,15.90
2023-05-08T06:58:56.963Z,17.10
2023-05-08T07:01:31.994Z,17.05
2023-05-08T07:03:59.248Z,17.08
2023-05-08T07:06:27.625Z,17.90
2023-05-08T07:08:54.734Z,17.42
2023-05-08T07:11:22.152Z,16.48
2023-05-08T07:13:49.261Z,17.17
2023-05-08T07:16:16.560Z,16.65
2023-05-08T07:18:44.270Z,16.70
2023-05-08T07:21:11.711Z,17.85
2023-05-08T07:23:38.925Z,16.52
2023-05-08T07:26:06.342Z,16.58
2023-05-08T07:28:33.504Z,17.42
2023-05-08T07:31:00.549Z,17.98
2023-05-08T07:33:27.610Z,16.38
2023-05-08T07:35:55.846Z,17.70
2023-05-08T07:38:22.989Z,17.70
2023-05-08T07:40:51.597Z,18.02
2023-05-08T07:43:18.657Z,19.00
2023-05-08T07:45:45.766Z,18.95
2023-05-08T07:48:12.920Z,17.98
2023-05-08T07:50:40.083Z,17.40
2023-05-08T07:53:07.124Z,17.90
2023-05-08T07:55:34.194Z,19.00
2023-05-08T07:58:01.287Z,17.73
2023-05-08T08:00:29.663Z,18.13
2023-05-08T08:02:57.578Z,18.70
2023-05-08T08:05:25.023Z,18.50
2023-05-08T08:07:52.057Z,19.88
2023-05-08T08:10:19.172Z,18.45
2023-05-08T08:12:46.322Z,18.90
2023-05-08T08:15:13.569Z,18.70
2023-05-08T08:17:40.888Z,19.33
2023-05-08T08:20:08.746Z,18.92
2023-05-08T08:22:37.992Z,19.25
2023-05-08T08:25:05.369Z,20.65
2023-05-08T08:27:32.464Z,18.52
2023-05-08T08:30:12.929Z,18.00
2023-05-08T08:35:12.147Z,18.45
2023-05-08T08:37:39.549Z,18.85
2023-05-08T08:40:07.514Z,18.52
2023-05-08T08:42:34.908Z,18.45
2023-05-08T08:45:02.422Z,18.13
2023-05-08T08:47:34.842Z,16.90
2023-05-08T08:50:04.125Z,18.13
2023-05-08T08:52:45.757Z,18.52
2023-05-08T08:55:16.880Z,18.20
2023-05-08T08:57:55.194Z,16.85
2023-05-08T09:00:24.053Z,17.42
2023-05-08T09:02:52.620Z,16.58
2023-05-08T09:05:23.807Z,16.90
2023-05-08T09:07:55.755Z,17.95
2023-05-08T09:10:25.377Z,17.60
2023-05-08T09:12:53.394Z,17.05
2023-05-08T09:15:20.734Z,17.48
2023-05-08T09:17:48.543Z,17.65
2023-05-08T09:20:16.378Z,16.80
2023-05-08T09:22:46.035Z,17.98
2023-05-08T09:25:13.645Z,16.23
2023-05-08T09:27:41.041Z,16.73
2023-05-08T09:30:10.628Z,17.85
2023-05-08T09:32:39.595Z,16.20
2023-05-08T09:35:08.583Z,16.45
2023-05-08T09:37:40.491Z,17.35
2023-05-08T09:40:23.802Z,16.58
2023-05-08T09:42:51.312Z,18.13
2023-05-08T09:45:35.588Z,17.83
2023-05-08T09:48:02.976Z,16.23
2023-05-08T09:50:30.064Z,17.08
2023-05-08T09:52:57.724Z,16.42
2023-05-08T09:55:24.951Z,16.92
2023-05-08T09:57:58.423Z,16.48
2023-05-08T10:00:27.650Z,16.58
2023-05-08T10:02:58.924Z,16.95
2023-05-08T10:05:32.059Z,16.88
2023-05-08T10:08:17.293Z,17.65
2023-05-08T10:13:11.790Z,15.40
2023-05-08T10:15:42.600Z,16.83
2023-05-08T10:18:12.201Z,17.27
2023-05-08T10:20:42.469Z,15.77
2023-05-08T10:23:14.607Z,17.15
2023-05-08T10:25:46.726Z,16.73
2023-05-08T10:28:18.676Z,16.80
2023-05-08T10:30:49.601Z,17.70
2023-05-08T10:33:21.566Z,16.90
2023-05-08T10:35:49.427Z,16.73
2023-05-08T10:38:17.660Z,16.98
2023-05-08T10:40:45.327Z,16.40
2023-05-08T10:43:13.052Z,17.42
2023-05-08T10:45:40.745Z,16.80
2023-05-08T10:48:34.022Z,16.15
2023-05-08T10:51:27.740Z,17.92
2023-05-08T10:54:05.550Z,15.95
2023-05-08T10:56:32.796Z,17.05
2023-05-08T10:59:00.022Z,15.82
2023-05-08T11:01:27.501Z,16.42
2023-05-08T11:03:56.329Z,17.38
2023-05-08T11:06:46.011Z,15.85
2023-05-08T11:09:21.628Z,16.77
2023-05-08T11:12:17.557Z,15.82
2023-05-08T11:14:55.699Z,16.15
2023-05-08T11:17:25.580Z,16.77
2023-05-08T11:19:58.656Z,17.55
2023-05-08T11:22:29.090Z,17.38
2023-05-08T11:24:58.843Z,17.45
2023-05-08T11:27:49.233Z,17.05
2023-05-08T11:30:26.258Z,17.02
2023-05-08T11:32:59.439Z,16.52
2023-05-08T11:35:46.909Z,16.52
2023-05-08T11:38:32.582Z,16.15
2023-05-08T11:41:03.173Z,16.25
2023-05-08T11:43:32.721Z,15.98
2023-05-08T11:46:19.421Z,15.95
2023-05-08T11:48:47.361Z,15.98
2023-05-08T11:51:19.701Z,16.92
2023-05-08T11:53:47.774Z,16.60
2023-05-08T11:56:14.970Z,16.67
2023-05-08T11:58:42.244Z,17.27
2023-05-08T12:01:09.475Z,16.75
2023-05-08T12:03:36.839Z,15.13
2023-05-08T12:06:04.477Z,15.85
2023-05-08T12:08:31.740Z,15.93
2023-05-08T12:10:58.999Z,15.05
2023-05-08T12:13:28.056Z,14.75
2023-05-08T12:15:57.995Z,16.35
2023-05-08T12:18:27.079Z,16.13
2023-05-08T12:20:57.592Z,16.77
2023-05-08T12:23:27.057Z,15.57
2023-05-08T12:25:55.534Z,15.15
2023-05-08T12:28:23.039Z,15.10
2023-05-08T12:30:50.547Z,16.38
2023-05-08T12:33:18.850Z,15.85
2023-05-08T12:35:46.293Z,14.95
2023-05-08T12:38:13.639Z,15.65
2023-05-08T12:40:43.574Z,16.25
2023-05-08T12:43:11.472Z,16.52
2023-05-08T12:45:40.613Z,15.65
2023-05-08T12:48:10.600Z,15.95
2023-05-08T12:50:39.583Z,17.40
2023-05-08T12:53:08.474Z,16.58
2023-05-08T12:55:36.938Z,15.25
2023-05-08T12:58:07.030Z,15.65
2023-05-08T13:00:37.425Z,16.42
2023-05-08T13:03:05.550Z,15.60
2023-05-08T13:05:34.102Z,16.92
2023-05-08T13:08:03.095Z,16.10
2023-05-08T13:10:51.050Z,17.33
2023-05-08T13:13:21.567Z,16.20
2023-05-08T13:15:50.326Z,16.42
2023-05-08T13:18:18.649Z,16.25
2023-05-08T13:20:46.406Z,16.13
2023-05-08T13:23:14.048Z,15.60
2023-05-08T13:25:41.679Z,16.05
2023-05-08T13:28:10.994Z,15.73
2023-05-08T13:30:38.608Z,16.08
2023-05-08T13:33:06.375Z,16.75
2023-05-08T13:35:34.626Z,16.88
2023-05-08T13:38:01.945Z,17.33
2023-05-08T13:40:29.771Z,15.73
2023-05-08T13:42:56.853Z,16.35
2023-05-08T13:45:24.136Z,16.10
2023-05-08T13:47:51.574Z,15.90
2023-05-08T13:50:21.708Z,15.63
2023-05-08T13:52:50.197Z,17.02
2023-05-08T13:55:21.201Z,15.35
2023-05-08T13:57:48.725Z,14.18
2023-05-08T14:00:16.394Z,16.40
2023-05-08T14:02:43.614Z,17.40
2023-05-08T14:05:11.461Z,17.25
2023-05-08T14:07:38.719Z,15.50
2023-05-08T14:10:06.348Z,15.38
2023-05-08T14:12:36.497Z,15.45
2023-05-08T14:15:05.330Z,16.70
2023-05-08T14:17:32.487Z,13.77
2023-05-08T14:19:59.963Z,16.20
2023-05-08T14:22:27.153Z,14.30
2023-05-08T14:24:54.371Z,13.85
2023-05-08T14:27:21.882Z,14.50
2023-05-08T14:29:49.401Z,14.10
2023-05-08T14:32:16.625Z,13.80
2023-05-08T14:34:43.751Z,13.52
2023-05-08T14:37:11.704Z,13.75
2023-05-08T14:39:38.875Z,13.45
2023-05-08T14:42:22.291Z,13.82
2023-05-08T14:44:50.458Z,13.20
2023-05-08T14:47:17.814Z,13.15
2023-05-08T14:49:44.892Z,14.48
2023-05-08T14:52:12.210Z,12.35
2023-05-08T14:54:39.589Z,13.27
2023-05-08T14:57:07.132Z,14.25
2023-05-08T14:59:34.347Z,12.82
2023-05-08T15:02:01.708Z,12.48
2023-05-08T15:04:28.937Z,13.45
2023-05-08T15:06:56.310Z,13.48
2023-05-08T15:09:23.554Z,13.43
2023-05-08T15:11:50.914Z,14.05
2023-05-08T15:14:18.234Z,12.02
2023-05-08T15:16:45.389Z,13.98
2023-05-08T15:19:12.689Z,12.88
2023-05-08T15:21:39.690Z,14.70
2023-05-08T15:24:07.471Z,13.57
2023-05-08T15:26:34.783Z,13.63
2023-05-08T15:29:01.941Z,13.30
2023-05-08T15:31:29.438Z,13.65
2023-05-08T15:33:56.551Z,13.07
2023-05-08T15:36:23.866Z,12.40
2023-05-08T15:38:51.639Z,13.82
2023-05-08T15:41:18.755Z,14.75
2023-05-08T15:43:46.931Z,13.35
2023-05-08T15:46:13.973Z,13.88
2023-05-08T15:48:41.229Z,13.68
2023-05-08T15:51:08.536Z,15.18
2023-05-08T15:53:36.209Z,13.95
2023-05-08T15:56:06.141Z,15.23
2023-05-08T15:58:33.561Z,14.25
2023-05-08T16:01:00.654Z,14.05
2023-05-08T16:03:27.950Z,14.98
2023-05-08T16:05:55.458Z,14.98
2023-05-08T16:08:22.705Z,15.93
2023-05-08T16:10:50.285Z,16.77
2023-05-08T16:13:17.636Z,16.15
2023-05-08T16:15:44.828Z,15.02
2023-05-08T16:18:12.054Z,16.15
2023-05-08T16:20:41.804Z,16.15
2023-05-08T16:23:09.241Z,16.33
2023-05-08T16:25:36.233Z,15.55
2023-05-08T16:28:03.693Z,16.08
2023-05-08T16:30:30.872Z,17.10
2023-05-08T16:32:58.138Z,16.90
2023-05-08T16:35:25.322Z,18.65
2023-05-08T16:37:52.782Z,17.75
2023-05-08T16:40:20.209Z,18.52
2023-05-08T16:42:47.360Z,17.38
2023-05-08T16:45:15.118Z,18.75
2023-05-08T16:47:42.425Z,18.38
2023-05-08T16:50:10.134Z,18.63
2023-05-08T16:52:37.339Z,18.35
2023-05-08T16:55:04.788Z,17.17
2023-05-08T16:57:31.969Z,17.75
2023-05-08T16:59:59.570Z,18.77
2023-05-08T17:02:26.716Z,19.63
2023-05-08T17:04:54.076Z,17.48
2023-05-08T17:07:21.460Z,19.85
2023-05-08T17:09:53.061Z,19.38
2023-05-08T17:12:20.210Z,18.30
2023-05-08T17:14:47.734Z,19.02
2023-05-08T17:17:15.178Z,19.60
2023-05-08T17:19:43.747Z,20.23
2023-05-08T17:22:11.763Z,19.80
2023-05-08T17:24:39.026Z,20.55
2023-05-08T17:27:07.212Z,19.20
2023-05-08T17:29:35.485Z,19.67
2023-05-08T17:32:02.693Z,19.77
2023-05-08T17:34:30.072Z,20.40
2023-05-08T17:36:57.228Z,19.15
2023-05-08T17:39:24.666Z,19.80
2023-05-08T17:41:52.125Z,19.80
2023-05-08T17:44:19.396Z,19.48
2023-05-08T17:46:46.468Z,19.20
2023-05-08T17:49:15.417Z,18.48
2023-05-08T17:51:43.541Z,19.83
2023-05-08T17:54:10.565Z,19.75
2023-05-08T17:56:37.708Z,18.83
2023-05-08T17:59:04.838Z,19.55
2023-05-08T18:01:32.191Z,18.20
2023-05-08T18:03:59.664Z,20.02
2023-05-08T18:06:26.791Z,19.95
2023-05-08T18:08:54.094Z,19.30
2023-05-08T18:11:24.832Z,20.15
2023-05-08T18:13:53.317Z,19.85
2023-05-08T18:16:22.553Z,21.45
2023-05-08T18:18:50.138Z,19.95
2023-05-08T18:21:17.300Z,19.10
2023-05-08T18:23:44.759Z,19.00
2023-05-08T18:26:16.412Z,19.58
2023-05-08T18:28:44.779Z,20.67
2023-05-08T18:31:12.314Z,21.85
2023-05-08T18:33:40.058Z,21.40
2023-05-08T18:36:07.656Z,21.13
2023-05-08T18:38:35.652Z,20.52
2023-05-08T18:41:05.434Z,20.95
2023-05-08T18:43:32.568Z,21.58
2023-05-08T18:46:00.791Z,20.83
2023-05-08T18:48:28.493Z,21.27
2023-05-08T18:50:58.707Z,21.88
2023-05-08T18:53:26.061Z,20.02
2023-05-08T18:55:53.246Z,20.70
2023-05-08T18:58:20.836Z,20.42
2023-05-08T19:00:48.121Z,22.30
2023-05-08T19:03:15.513Z,20.13
2023-05-08T19:05:42.625Z,22.45
2023-05-08T19:08:09.889Z,20.50
2023-05-08T19:10:37.326Z,21.17
2023-05-08T19:13:04.797Z,22.40
2023-05-08T19:15:32.001Z,21.42
2023-05-08T19:17:59.177Z,21.45
2023-05-08T19:20:26.265Z,21.00
2023-05-08T19:22:53.748Z,20.90
2023-05-08T19:25:21.471Z,20.80
2023-05-08T19:27:49.090Z,21.38
2023-05-08T19:30:16.683Z,21.13
2023-05-08T19:32:43.882Z,20.70
2023-05-08T19:35:11.175Z,21.67
2023-05-08T19:37:38.260Z,20.70
2023-05-08T19:40:06.544Z,23.08
2023-05-08T19:42:33.685Z,22.73
2023-05-08T19:45:01.406Z,19.70
2023-05-08T19:47:28.594Z,18.77
2023-05-08T19:49:55.759Z,19.73
2023-05-08T19:52:22.943Z,21.55
2023-05-08T19:54:50.340Z,22.15
2023-05-08T19:57:17.544Z,21.60
2023-05-08T19:59:44.758Z,28.13
2023-05-08T20:02:12.080Z,26.65
2023-05-08T20:04:57.302Z,21.33
2023-05-08T20:07:26.486Z,21.17
2023-05-08T20:09:53.497Z,20.98
2023-05-08T20:12:20.826Z,20.67
2023-05-08T20:14:47.889Z,21.02
2023-05-08T20:17:15.323Z,21.50
2023-05-08T20:19:42.596Z,19.77
2023-05-08T20:22:11.059Z,21.05
2023-05-08T20:24:38.216Z,20.42
2023-05-08T20:27:05.711Z,20.70
2023-05-08T20:29:32.745Z,19.75
2023-05-08T20:31:59.997Z,21.58
2023-05-08T20:34:27.163Z,21.17
2023-05-08T20:36:54.395Z,21.83
2023-05-08T20:39:21.986Z,20.98
2023-05-08T20:41:49.113Z,21.25
2023-05-08T20:44:19.299Z,21.80
2023-05-08T20:46:46.561Z,21.40
2023-05-08T20:49:13.929Z,21.20
2023-05-08T20:51:41.182Z,21.65
2023-05-08T20:54:08.195Z,21.00
2023-05-08T20:56:36.520Z,20.73
2023-05-08T20:59:03.824Z,20.80
2023-05-08T21:01:31.013Z,21.15
2023-05-08T21:03:58.169Z,20.58
2023-05-08T21:06:25.529Z,21.35
2023-05-08T21:08:52.789Z,21.60
2023-05-08T21:11:19.881Z,21.02
2023-05-08T21:13:47.014Z,20.50
2023-05-08T21:16:14.448Z,21.00
2023-05-08T21:18:41.664Z,21.67
2023-05-08T21:21:17.613Z,21.77
2023-05-08T21:23:44.763Z,20.13
2023-05-08T21:26:12.386Z,19.17
2023-05-08T21:28:39.485Z,18.63
2023-05-08T21:31:06.783Z,19.88
2023-05-08T21:33:33.995Z,19.25
2023-05-08T21:36:01.142Z,18.92
2023-05-08T21:38:28.278Z,18.70
2023-05-08T21:40:55.861Z,18.10
2023-05-08T21:43:22.989Z,18.45
2023-05-08T21:45:50.186Z,20.77
2023-05-08T21:48:17.373Z,20.67
2023-05-08T21:50:44.488Z,22.27
2023-05-08T21:53:11.719Z,22.88
2023-05-08T21:55:38.882Z,20.88
2023-05-08T21:58:06.202Z,22.83
2023-05-08T22:00:33.242Z,20.42
2023-05-08T22:03:00.501Z,20.73
2023-05-08T22:05:27.759Z,19.33
2023-05-08T22:07:54.845Z,17.85
2023-05-08T22:10:22.396Z,19.17
2023-05-08T22:12:49.444Z,19.25
2023-05-08T22:15:29.149Z,21.17
2023-05-08T22:17:57.979Z,20.55
2023-05-08T22:20:25.287Z,21.77
2023-05-08T22:22:52.425Z,22.67
2023-05-08T22:25:21.891Z,22.95
2023-05-08T22:27:49.248Z,23.38
2023-05-08T22:30:16.551Z,22.88
2023-05-08T22:32:43.677Z,21.92
2023-05-08T22:35:10.990Z,21.92
2023-05-08T22:37:38.141Z,21.70
2023-05-08T22:40:05.976Z,22.13
2023-05-08T22:42:33.029Z,20.77
2023-05-08T22:45:00.196Z,20.17
2023-05-08T22:47:28.245Z,24.00
2023-05-08T22:49:55.483Z,24.70
2023-05-08T22:52:22.549Z,24.20
2023-05-08T22:54:49.668Z,24.60
2023-05-08T22:57:16.859Z,24.95
2023-05-08T22:59:44.000Z,23.90
2023-05-08T23:02:11.266Z,22.67
2023-05-08T23:04:38.409Z,22.98
2023-05-08T23:07:05.508Z,20.63
2023-05-08T23:09:32.641Z,21.85
2023-05-08T23:11:59.636Z,22.10
2023-05-08T23:14:26.862Z,22.95
2023-05-08T23:16:54.051Z,21.88
2023-05-08T23:19:21.178Z,22.55
2023-05-08T23:21:48.445Z,21.08
2023-05-08T23:24:15.642Z,21.50
2023-05-08T23:26:42.908Z,19.27
2023-05-08T23:29:09.987Z,18.95
2023-05-08T23:31:37.137Z,19.55
2023-05-08T23:34:04.291Z,19.65
2023-05-08T23:36:32.164Z,19.35
2023-05-08T23:38:59.305Z,18.98
2023-05-08T23:41:26.414Z,19.15
2023-05-08T23:43:53.439Z,19.35
2023-05-08T23:46:20.537Z,20.20
2023-05-08T23:48:47.802Z,19.23
2023-05-08T23:51:14.790Z,20.35
2023-05-08T23:53:42.385Z,20.88
2023-05-08T23:56:09.478Z,19.85
2023-05-08T23:58:36.621Z,19.02
